sensor_id;sensor_type;location;lat;lon;timestamp;temperature;humidity
12746;DHT22;6437;53.686;10.030;2023-03-14T00:00:53;11.90;99.90
12746;DHT22;6437;53.686;10.030;2023-03-14T00:02:55;11.90;99.90
12746;DHT22;6437;53.686;10.030;2023-03-14T00:04:57;11.90;99.90
12746;DHT22;6437;53.686;10.030;2023-03-14T00:06:59;11.80;99.90
12746;DHT22;6437;53.686;10.030;2023-03-14T00:09:02;11.80;99.90
12746;DHT22;6437;53.686;10.030;2023-03-14T00:11:05;11.60;99.90
12746;DHT22;6437;53.686;10.030;2023-03-14T00:13:07;11.80;99.90
12746;DHT22;6437;53.686;10.030;2023-03-14T00:15:09;11.80;99.90
12746;DHT22;6437;53.686;10.030;2023-03-14T00:17:11;11.80;99.90
12746;DHT22;6437;53.686;10.030;2023-03-14T00:19:14;11.80;99.90
12746;DHT22;6437;53.686;10.030;2023-03-14T00:21:16;11.80;99.90
12746;DHT22;6437;53.686;10.030;2023-03-14T00:23:17;11.80;99.90
12746;DHT22;6437;53.686;10.030;2023-03-14T00:25:21;12.20;99.90
12746;DHT22;6437;53.686;10.030;2023-03-14T00:27:22;11.80;99.90
12746;DHT22;6437;53.686;10.030;2023-03-14T00:29:24;11.80;99.90
12746;DHT22;6437;53.686;10.030;2023-03-14T00:31:26;11.80;99.90
12746;DHT22;6437;53.686;10.030;2023-03-14T00:33:28;11.80;99.90
12746;DHT22;6437;53.686;10.030;2023-03-14T00:35:29;11.80;99.90
12746;DHT22;6437;53.686;10.030;2023-03-14T00:37:31;11.80;99.90
12746;DHT22;6437;53.686;10.030;2023-03-14T00:39:33;11.70;99.90
12746;DHT22;6437;53.686;10.030;2023-03-14T00:41:36;11.70;99.90
12746;DHT22;6437;53.686;10.030;2023-03-14T00:43:38;11.70;99.90
12746;DHT22;6437;53.686;10.030;2023-03-14T00:45:40;11.80;99.90
12746;DHT22;6437;53.686;10.030;2023-03-14T00:47:42;11.80;99.90
12746;DHT22;6437;53.686;10.030;2023-03-14T00:49:45;11.80;99.90
12746;DHT22;6437;53.686;10.030;2023-03-14T00:51:48;11.80;99.90
12746;DHT22;6437;53.686;10.030;2023-03-14T00:53:50;11.80;99.90
12746;DHT22;6437;53.686;10.030;2023-03-14T00:55:52;11.80;99.90
12746;DHT22;6437;53.686;10.030;2023-03-14T00:57:55;11.80;99.90
12746;DHT22;6437;53.686;10.030;2023-03-14T00:59:57;11.80;99.90
12746;DHT22;6437;53.686;10.030;2023-03-14T01:01:58;11.70;99.90
12746;DHT22;6437;53.686;10.030;2023-03-14T01:04:00;11.70;99.90
12746;DHT22;6437;53.686;10.030;2023-03-14T01:06:10;11.70;99.90
12746;DHT22;6437;53.686;10.030;2023-03-14T01:08:12;11.80;99.90
12746;DHT22;6437;53.686;10.030;2023-03-14T01:12:16;11.70;99.90
12746;DHT22;6437;53.686;10.030;2023-03-14T01:14:19;11.70;99.90
12746;DHT22;6437;53.686;10.030;2023-03-14T01:16:22;11.60;99.90
12746;DHT22;6437;53.686;10.030;2023-03-14T01:18:24;11.70;99.90
12746;DHT22;6437;53.686;10.030;2023-03-14T01:20:26;11.70;99.90
12746;DHT22;6437;53.686;10.030;2023-03-14T01:22:28;11.70;99.90
12746;DHT22;6437;53.686;10.030;2023-03-14T01:24:30;11.70;99.90
12746;DHT22;6437;53.686;10.030;2023-03-14T01:26:33;11.70;99.90
12746;DHT22;6437;53.686;10.030;2023-03-14T01:28:45;11.80;99.90
12746;DHT22;6437;53.686;10.030;2023-03-14T01:30:49;11.80;99.90
12746;DHT22;6437;53.686;10.030;2023-03-14T01:32:51;11.80;99.90
12746;DHT22;6437;53.686;10.030;2023-03-14T01:34:53;11.80;99.90
12746;DHT22;6437;53.686;10.030;2023-03-14T01:36:54;11.80;99.90
12746;DHT22;6437;53.686;10.030;2023-03-14T01:38:56;11.80;99.90
12746;DHT22;6437;53.686;10.030;2023-03-14T01:40:58;11.80;99.90
12746;DHT22;6437;53.686;10.030;2023-03-14T01:43:12;11.80;99.90
12746;DHT22;6437;53.686;10.030;2023-03-14T01:47:55;11.80;99.90
12746;DHT22;6437;53.686;10.030;2023-03-14T01:50:01;11.80;99.90
12746;DHT22;6437;53.686;10.030;2023-03-14T01:52:05;11.80;99.90
12746;DHT22;6437;53.686;10.030;2023-03-14T01:54:12;11.80;99.90
12746;DHT22;6437;53.686;10.030;2023-03-14T01:56:17;11.80;99.90
12746;DHT22;6437;53.686;10.030;2023-03-14T01:58:20;11.80;99.90
12746;DHT22;6437;53.686;10.030;2023-03-14T02:00:23;11.80;99.90
12746;DHT22;6437;53.686;10.030;2023-03-14T02:02:26;11.80;99.90
12746;DHT22;6437;53.686;10.030;2023-03-14T02:04:32;11.90;99.90
12746;DHT22;6437;53.686;10.030;2023-03-14T02:06:41;11.90;99.90
12746;DHT22;6437;53.686;10.030;2023-03-14T02:08:44;12.10;99.90
12746;DHT22;6437;53.686;10.030;2023-03-14T02:10:49;11.90;99.90
12746;DHT22;6437;53.686;10.030;2023-03-14T02:12:52;11.90;99.90
12746;DHT22;6437;53.686;10.030;2023-03-14T02:14:55;11.90;99.90
12746;DHT22;6437;53.686;10.030;2023-03-14T02:16:57;11.90;99.90
12746;DHT22;6437;53.686;10.030;2023-03-14T02:18:59;11.90;99.90
12746;DHT22;6437;53.686;10.030;2023-03-14T02:21:09;11.90;99.90
12746;DHT22;6437;53.686;10.030;2023-03-14T02:23:16;11.90;99.90
12746;DHT22;6437;53.686;10.030;2023-03-14T02:25:25;11.90;99.90
12746;DHT22;6437;53.686;10.030;2023-03-14T02:27:31;11.90;99.90
12746;DHT22;6437;53.686;10.030;2023-03-14T02:29:35;11.80;99.90
12746;DHT22;6437;53.686;10.030;2023-03-14T02:31:38;11.90;99.90
12746;DHT22;6437;53.686;10.030;2023-03-14T02:33:40;11.90;99.90
12746;DHT22;6437;53.686;10.030;2023-03-14T02:35:44;11.80;99.90
12746;DHT22;6437;53.686;10.030;2023-03-14T02:37:50;11.90;99.90
12746;DHT22;6437;53.686;10.030;2023-03-14T02:39:53;11.90;99.90
12746;DHT22;6437;53.686;10.030;2023-03-14T02:41:55;11.90;99.90
12746;DHT22;6437;53.686;10.030;2023-03-14T02:43:58;11.90;99.90
12746;DHT22;6437;53.686;10.030;2023-03-14T02:46:01;11.90;99.90
12746;DHT22;6437;53.686;10.030;2023-03-14T02:48:07;11.90;99.90
12746;DHT22;6437;53.686;10.030;2023-03-14T02:50:14;11.90;99.90
12746;DHT22;6437;53.686;10.030;2023-03-14T02:52:17;11.90;99.90
12746;DHT22;6437;53.686;10.030;2023-03-14T02:54:19;11.90;99.90
12746;DHT22;6437;53.686;10.030;2023-03-14T02:56:22;11.80;99.90
12746;DHT22;6437;53.686;10.030;2023-03-14T02:58:24;11.90;99.90
12746;DHT22;6437;53.686;10.030;2023-03-14T03:00:27;11.90;99.90
12746;DHT22;6437;53.686;10.030;2023-03-14T03:02:31;11.90;99.90
12746;DHT22;6437;53.686;10.030;2023-03-14T03:04:32;11.90;99.90
12746;DHT22;6437;53.686;10.030;2023-03-14T03:06:34;11.90;99.90
12746;DHT22;6437;53.686;10.030;2023-03-14T03:08:36;11.80;99.90
12746;DHT22;6437;53.686;10.030;2023-03-14T03:10:38;11.90;99.90
12746;DHT22;6437;53.686;10.030;2023-03-14T03:12:39;11.80;99.90
12746;DHT22;6437;53.686;10.030;2023-03-14T03:14:41;11.80;99.90
12746;DHT22;6437;53.686;10.030;2023-03-14T03:16:44;11.80;99.90
12746;DHT22;6437;53.686;10.030;2023-03-14T03:18:46;11.90;99.90
12746;DHT22;6437;53.686;10.030;2023-03-14T03:20:47;11.80;99.90
12746;DHT22;6437;53.686;10.030;2023-03-14T03:22:49;11.80;99.90
12746;DHT22;6437;53.686;10.030;2023-03-14T03:24:51;11.80;99.90
12746;DHT22;6437;53.686;10.030;2023-03-14T03:26:53;11.80;99.90
12746;DHT22;6437;53.686;10.030;2023-03-14T03:28:55;11.80;99.90
12746;DHT22;6437;53.686;10.030;2023-03-14T03:30:56;11.80;99.90
12746;DHT22;6437;53.686;10.030;2023-03-14T03:32:59;11.80;99.90
12746;DHT22;6437;53.686;10.030;2023-03-14T03:35:02;11.80;99.90
12746;DHT22;6437;53.686;10.030;2023-03-14T03:37:03;11.80;99.90
12746;DHT22;6437;53.686;10.030;2023-03-14T03:39:05;11.80;99.90
12746;DHT22;6437;53.686;10.030;2023-03-14T03:41:07;11.80;99.90
12746;DHT22;6437;53.686;10.030;2023-03-14T03:43:09;11.90;99.90
12746;DHT22;6437;53.686;10.030;2023-03-14T03:45:11;11.90;99.90
12746;DHT22;6437;53.686;10.030;2023-03-14T03:47:13;11.80;99.90
12746;DHT22;6437;53.686;10.030;2023-03-14T03:49:16;11.80;99.90
12746;DHT22;6437;53.686;10.030;2023-03-14T03:51:17;11.80;99.90
12746;DHT22;6437;53.686;10.030;2023-03-14T03:53:19;11.80;99.90
12746;DHT22;6437;53.686;10.030;2023-03-14T03:55:21;11.80;99.90
12746;DHT22;6437;53.686;10.030;2023-03-14T03:57:23;11.80;99.90
12746;DHT22;6437;53.686;10.030;2023-03-14T03:59:25;11.80;99.90
12746;DHT22;6437;53.686;10.030;2023-03-14T04:01:26;11.80;99.90
12746;DHT22;6437;53.686;10.030;2023-03-14T04:03:28;11.80;99.90
12746;DHT22;6437;53.686;10.030;2023-03-14T04:05:31;11.80;99.90
12746;DHT22;6437;53.686;10.030;2023-03-14T04:07:34;11.80;99.90
12746;DHT22;6437;53.686;10.030;2023-03-14T04:09:37;11.80;99.90
12746;DHT22;6437;53.686;10.030;2023-03-14T04:11:39;11.80;99.90
12746;DHT22;6437;53.686;10.030;2023-03-14T04:13:41;11.80;99.90
12746;DHT22;6437;53.686;10.030;2023-03-14T04:15:43;11.70;99.90
12746;DHT22;6437;53.686;10.030;2023-03-14T04:17:45;11.70;99.90
12746;DHT22;6437;53.686;10.030;2023-03-14T04:19:47;11.70;99.90
12746;DHT22;6437;53.686;10.030;2023-03-14T04:21:52;11.70;99.90
12746;DHT22;6437;53.686;10.030;2023-03-14T04:23:54;11.70;99.90
12746;DHT22;6437;53.686;10.030;2023-03-14T04:25:56;11.70;99.90
12746;DHT22;6437;53.686;10.030;2023-03-14T04:27:57;11.70;99.90
12746;DHT22;6437;53.686;10.030;2023-03-14T04:29:59;11.70;99.90
12746;DHT22;6437;53.686;10.030;2023-03-14T04:32:01;11.80;99.90
12746;DHT22;6437;53.686;10.030;2023-03-14T04:34:03;11.70;99.90
12746;DHT22;6437;53.686;10.030;2023-03-14T04:36:05;11.70;99.90
12746;DHT22;6437;53.686;10.030;2023-03-14T04:38:09;11.70;99.90
12746;DHT22;6437;53.686;10.030;2023-03-14T04:40:12;11.60;99.90
12746;DHT22;6437;53.686;10.030;2023-03-14T04:42:14;11.60;99.90
12746;DHT22;6437;53.686;10.030;2023-03-14T04:44:16;11.60;99.90
12746;DHT22;6437;53.686;10.030;2023-03-14T04:46:17;11.60;99.90
12746;DHT22;6437;53.686;10.030;2023-03-14T04:48:19;11.60;99.90
12746;DHT22;6437;53.686;10.030;2023-03-14T04:50:21;11.60;99.90
12746;DHT22;6437;53.686;10.030;2023-03-14T04:52:23;11.60;99.90
12746;DHT22;6437;53.686;10.030;2023-03-14T04:54:26;11.60;99.90
12746;DHT22;6437;53.686;10.030;2023-03-14T04:56:27;11.60;99.90
12746;DHT22;6437;53.686;10.030;2023-03-14T04:58:29;11.50;99.90
12746;DHT22;6437;53.686;10.030;2023-03-14T05:00:31;11.50;99.90
12746;DHT22;6437;53.686;10.030;2023-03-14T05:02:34;11.50;99.90
12746;DHT22;6437;53.686;10.030;2023-03-14T05:04:36;11.50;99.90
12746;DHT22;6437;53.686;10.030;2023-03-14T05:06:38;11.40;99.90
12746;DHT22;6437;53.686;10.030;2023-03-14T05:08:40;11.30;99.90
12746;DHT22;6437;53.686;10.030;2023-03-14T05:10:43;11.20;99.90
12746;DHT22;6437;53.686;10.030;2023-03-14T05:12:45;11.20;99.90
12746;DHT22;6437;53.686;10.030;2023-03-14T05:14:46;11.10;99.90
12746;DHT22;6437;53.686;10.030;2023-03-14T05:16:48;11.10;99.90
12746;DHT22;6437;53.686;10.030;2023-03-14T05:18:50;11.00;99.90
12746;DHT22;6437;53.686;10.030;2023-03-14T05:20:52;11.00;99.90
12746;DHT22;6437;53.686;10.030;2023-03-14T05:22:53;10.90;99.90
12746;DHT22;6437;53.686;10.030;2023-03-14T05:24:55;10.90;99.90
12746;DHT22;6437;53.686;10.030;2023-03-14T05:27:00;10.90;99.90
12746;DHT22;6437;53.686;10.030;2023-03-14T05:29:02;10.90;99.90
12746;DHT22;6437;53.686;10.030;2023-03-14T05:31:06;10.80;99.90
12746;DHT22;6437;53.686;10.030;2023-03-14T05:33:08;10.80;99.90
12746;DHT22;6437;53.686;10.030;2023-03-14T05:35:10;10.70;99.90
12746;DHT22;6437;53.686;10.030;2023-03-14T05:37:11;10.70;99.90
12746;DHT22;6437;53.686;10.030;2023-03-14T05:39:13;10.70;99.90
12746;DHT22;6437;53.686;10.030;2023-03-14T05:41:15;10.60;99.90
12746;DHT22;6437;53.686;10.030;2023-03-14T05:43:18;10.60;99.90
12746;DHT22;6437;53.686;10.030;2023-03-14T05:45:20;10.60;99.90
12746;DHT22;6437;53.686;10.030;2023-03-14T05:47:22;10.60;99.90
12746;DHT22;6437;53.686;10.030;2023-03-14T05:49:24;10.50;99.90
12746;DHT22;6437;53.686;10.030;2023-03-14T05:51:25;10.50;99.90
12746;DHT22;6437;53.686;10.030;2023-03-14T05:53:28;10.50;99.90
12746;DHT22;6437;53.686;10.030;2023-03-14T05:55:30;10.50;99.90
12746;DHT22;6437;53.686;10.030;2023-03-14T05:57:32;10.40;99.90
12746;DHT22;6437;53.686;10.030;2023-03-14T05:59:35;10.40;99.90
12746;DHT22;6437;53.686;10.030;2023-03-14T06:01:37;10.40;99.90
12746;DHT22;6437;53.686;10.030;2023-03-14T06:03:38;10.40;99.90
12746;DHT22;6437;53.686;10.030;2023-03-14T06:05:40;10.40;99.90
12746;DHT22;6437;53.686;10.030;2023-03-14T06:07:42;10.40;99.90
12746;DHT22;6437;53.686;10.030;2023-03-14T06:09:44;10.40;99.90
12746;DHT22;6437;53.686;10.030;2023-03-14T06:11:46;10.40;99.90
12746;DHT22;6437;53.686;10.030;2023-03-14T06:13:48;10.40;99.90
12746;DHT22;6437;53.686;10.030;2023-03-14T06:15:51;10.50;99.90
12746;DHT22;6437;53.686;10.030;2023-03-14T06:17:54;10.50;99.90
12746;DHT22;6437;53.686;10.030;2023-03-14T06:19:55;10.50;99.90
12746;DHT22;6437;53.686;10.030;2023-03-14T06:21:57;10.50;99.90
12746;DHT22;6437;53.686;10.030;2023-03-14T06:23:59;10.50;99.90
12746;DHT22;6437;53.686;10.030;2023-03-14T06:26:01;10.50;99.90
12746;DHT22;6437;53.686;10.030;2023-03-14T06:28:03;10.50;99.90
12746;DHT22;6437;53.686;10.030;2023-03-14T06:30:05;10.50;99.90
12746;DHT22;6437;53.686;10.030;2023-03-14T06:32:09;10.50;99.90
12746;DHT22;6437;53.686;10.030;2023-03-14T06:34:11;10.70;99.90
12746;DHT22;6437;53.686;10.030;2023-03-14T06:36:12;10.50;99.90
12746;DHT22;6437;53.686;10.030;2023-03-14T06:38:14;10.70;99.90
12746;DHT22;6437;53.686;10.030;2023-03-14T06:40:16;10.50;99.90
12746;DHT22;6437;53.686;10.030;2023-03-14T06:42:18;10.60;99.90
12746;DHT22;6437;53.686;10.030;2023-03-14T06:44:20;10.50;99.90
12746;DHT22;6437;53.686;10.030;2023-03-14T06:46:22;10.50;99.90
12746;DHT22;6437;53.686;10.030;2023-03-14T06:48:25;10.50;99.90
12746;DHT22;6437;53.686;10.030;2023-03-14T06:50:27;10.50;99.90
12746;DHT22;6437;53.686;10.030;2023-03-14T06:52:29;10.50;99.90
12746;DHT22;6437;53.686;10.030;2023-03-14T06:54:31;10.50;99.90
12746;DHT22;6437;53.686;10.030;2023-03-14T06:56:33;10.50;99.90
12746;DHT22;6437;53.686;10.030;2023-03-14T06:58:34;10.40;99.90
12746;DHT22;6437;53.686;10.030;2023-03-14T07:00:36;10.50;99.90
12746;DHT22;6437;53.686;10.030;2023-03-14T07:02:39;10.50;99.90
12746;DHT22;6437;53.686;10.030;2023-03-14T07:04:42;10.50;99.90
12746;DHT22;6437;53.686;10.030;2023-03-14T07:06:44;10.50;99.90
12746;DHT22;6437;53.686;10.030;2023-03-14T07:08:47;10.50;99.90
12746;DHT22;6437;53.686;10.030;2023-03-14T07:10:49;10.50;99.90
12746;DHT22;6437;53.686;10.030;2023-03-14T07:12:52;10.50;99.90
12746;DHT22;6437;53.686;10.030;2023-03-14T07:14:54;10.50;99.90
12746;DHT22;6437;53.686;10.030;2023-03-14T07:16:56;10.50;99.90
12746;DHT22;6437;53.686;10.030;2023-03-14T07:18:57;10.50;99.90
12746;DHT22;6437;53.686;10.030;2023-03-14T07:21:01;10.50;99.90
12746;DHT22;6437;53.686;10.030;2023-03-14T07:23:02;10.50;99.90
12746;DHT22;6437;53.686;10.030;2023-03-14T07:25:05;10.50;99.90
12746;DHT22;6437;53.686;10.030;2023-03-14T07:27:06;10.50;99.90
12746;DHT22;6437;53.686;10.030;2023-03-14T07:29:08;10.50;99.90
12746;DHT22;6437;53.686;10.030;2023-03-14T07:31:10;10.50;99.90
12746;DHT22;6437;53.686;10.030;2023-03-14T07:33:12;10.50;99.90
12746;DHT22;6437;53.686;10.030;2023-03-14T07:35:14;10.50;99.90
12746;DHT22;6437;53.686;10.030;2023-03-14T07:37:17;10.50;99.90
12746;DHT22;6437;53.686;10.030;2023-03-14T07:39:19;10.50;99.90
12746;DHT22;6437;53.686;10.030;2023-03-14T07:41:21;10.60;99.90
12746;DHT22;6437;53.686;10.030;2023-03-14T07:43:23;10.60;99.90
12746;DHT22;6437;53.686;10.030;2023-03-14T07:45:25;10.60;99.90
12746;DHT22;6437;53.686;10.030;2023-03-14T07:47:27;10.60;99.90
12746;DHT22;6437;53.686;10.030;2023-03-14T07:49:28;10.60;99.90
12746;DHT22;6437;53.686;10.030;2023-03-14T07:51:30;11.10;99.90
12746;DHT22;6437;53.686;10.030;2023-03-14T07:53:34;10.60;99.90
12746;DHT22;6437;53.686;10.030;2023-03-14T07:55:36;10.60;99.90
12746;DHT22;6437;53.686;10.030;2023-03-14T07:57:37;10.30;99.90
12746;DHT22;6437;53.686;10.030;2023-03-14T07:59:39;10.60;99.90
12746;DHT22;6437;53.686;10.030;2023-03-14T08:01:41;10.60;99.90
12746;DHT22;6437;53.686;10.030;2023-03-14T08:03:43;10.60;99.90
12746;DHT22;6437;53.686;10.030;2023-03-14T08:05:47;10.60;99.90
12746;DHT22;6437;53.686;10.030;2023-03-14T08:07:49;10.60;99.90
12746;DHT22;6437;53.686;10.030;2023-03-14T08:09:52;10.70;99.90
12746;DHT22;6437;53.686;10.030;2023-03-14T08:11:54;10.70;99.90
12746;DHT22;6437;53.686;10.030;2023-03-14T08:13:56;10.40;99.90
12746;DHT22;6437;53.686;10.030;2023-03-14T08:15:57;10.70;99.90
12746;DHT22;6437;53.686;10.030;2023-03-14T08:17:59;10.80;99.90
12746;DHT22;6437;53.686;10.030;2023-03-14T08:20:01;10.80;99.90
12746;DHT22;6437;53.686;10.030;2023-03-14T08:22:07;10.80;99.90
12746;DHT22;6437;53.686;10.030;2023-03-14T08:24:09;10.80;99.90
12746;DHT22;6437;53.686;10.030;2023-03-14T08:26:12;10.80;99.90
12746;DHT22;6437;53.686;10.030;2023-03-14T08:28:14;10.80;99.90
12746;DHT22;6437;53.686;10.030;2023-03-14T08:30:17;10.90;99.90
12746;DHT22;6437;53.686;10.030;2023-03-14T08:32:19;10.90;99.90
12746;DHT22;6437;53.686;10.030;2023-03-14T08:34:20;10.90;99.90
12746;DHT22;6437;53.686;10.030;2023-03-14T08:36:22;10.90;99.90
12746;DHT22;6437;53.686;10.030;2023-03-14T08:38:24;10.90;99.90
12746;DHT22;6437;53.686;10.030;2023-03-14T08:40:26;10.90;99.90
12746;DHT22;6437;53.686;10.030;2023-03-14T08:42:29;10.90;99.90
12746;DHT22;6437;53.686;10.030;2023-03-14T08:44:31;10.90;99.90
12746;DHT22;6437;53.686;10.030;2023-03-14T08:46:32;10.90;99.90
12746;DHT22;6437;53.686;10.030;2023-03-14T08:48:34;10.90;99.90
12746;DHT22;6437;53.686;10.030;2023-03-14T08:50:36;10.90;99.90
12746;DHT22;6437;53.686;10.030;2023-03-14T08:52:38;10.90;99.90
12746;DHT22;6437;53.686;10.030;2023-03-14T08:54:40;10.90;99.90
12746;DHT22;6437;53.686;10.030;2023-03-14T08:56:42;10.90;99.90
12746;DHT22;6437;53.686;10.030;2023-03-14T08:58:45;10.90;99.90
12746;DHT22;6437;53.686;10.030;2023-03-14T09:00:47;10.90;99.90
12746;DHT22;6437;53.686;10.030;2023-03-14T09:02:49;10.90;99.90
12746;DHT22;6437;53.686;10.030;2023-03-14T09:04:51;10.80;99.90
12746;DHT22;6437;53.686;10.030;2023-03-14T09:06:53;10.80;99.90
12746;DHT22;6437;53.686;10.030;2023-03-14T09:08:55;10.80;99.90
12746;DHT22;6437;53.686;10.030;2023-03-14T09:10:57;10.80;99.90
12746;DHT22;6437;53.686;10.030;2023-03-14T09:12:59;10.50;99.90
12746;DHT22;6437;53.686;10.030;2023-03-14T09:15:03;10.70;99.90
12746;DHT22;6437;53.686;10.030;2023-03-14T09:17:05;10.70;99.90
12746;DHT22;6437;53.686;10.030;2023-03-14T09:19:07;10.80;99.90
12746;DHT22;6437;53.686;10.030;2023-03-14T09:21:08;10.70;99.90
12746;DHT22;6437;53.686;10.030;2023-03-14T09:23:10;10.70;99.90
12746;DHT22;6437;53.686;10.030;2023-03-14T09:25:12;10.70;99.90
12746;DHT22;6437;53.686;10.030;2023-03-14T09:27:14;10.70;99.90
12746;DHT22;6437;53.686;10.030;2023-03-14T09:29:16;10.70;99.90
12746;DHT22;6437;53.686;10.030;2023-03-14T09:31:19;10.70;99.90
12746;DHT22;6437;53.686;10.030;2023-03-14T09:33:21;10.70;99.90
12746;DHT22;6437;53.686;10.030;2023-03-14T09:35:23;10.70;99.90
12746;DHT22;6437;53.686;10.030;2023-03-14T09:37:25;10.70;99.90
12746;DHT22;6437;53.686;10.030;2023-03-14T09:39:26;10.70;99.90
12746;DHT22;6437;53.686;10.030;2023-03-14T09:41:31;10.70;99.90
12746;DHT22;6437;53.686;10.030;2023-03-14T09:43:35;10.70;99.90
12746;DHT22;6437;53.686;10.030;2023-03-14T09:45:40;10.70;99.90
12746;DHT22;6437;53.686;10.030;2023-03-14T09:47:45;10.70;99.90
12746;DHT22;6437;53.686;10.030;2023-03-14T09:49:48;10.70;99.90
12746;DHT22;6437;53.686;10.030;2023-03-14T09:51:53;10.60;99.90
12746;DHT22;6437;53.686;10.030;2023-03-14T09:53:55;10.50;99.90
12746;DHT22;6437;53.686;10.030;2023-03-14T09:55:58;10.50;99.90
12746;DHT22;6437;53.686;10.030;2023-03-14T09:58:03;10.50;99.90
12746;DHT22;6437;53.686;10.030;2023-03-14T10:00:14;10.40;99.90
12746;DHT22;6437;53.686;10.030;2023-03-14T10:02:19;10.40;99.90
12746;DHT22;6437;53.686;10.030;2023-03-14T10:04:23;10.30;99.90
12746;DHT22;6437;53.686;10.030;2023-03-14T10:06:27;10.30;99.90
12746;DHT22;6437;53.686;10.030;2023-03-14T10:08:30;10.30;99.90
12746;DHT22;6437;53.686;10.030;2023-03-14T10:10:32;10.30;99.90
12746;DHT22;6437;53.686;10.030;2023-03-14T10:12:36;10.20;99.90
12746;DHT22;6437;53.686;10.030;2023-03-14T10:14:46;10.20;99.90
12746;DHT22;6437;53.686;10.030;2023-03-14T10:16:48;10.20;99.90
12746;DHT22;6437;53.686;10.030;2023-03-14T10:18:50;10.20;99.90
12746;DHT22;6437;53.686;10.030;2023-03-14T10:21:03;10.10;99.90
12746;DHT22;6437;53.686;10.030;2023-03-14T10:23:19;10.00;99.90
12746;DHT22;6437;53.686;10.030;2023-03-14T10:25:27;9.90;99.90
12746;DHT22;6437;53.686;10.030;2023-03-14T10:27:30;9.70;99.90
12746;DHT22;6437;53.686;10.030;2023-03-14T10:29:34;9.80;99.90
12746;DHT22;6437;53.686;10.030;2023-03-14T10:31:47;9.70;99.90
12746;DHT22;6437;53.686;10.030;2023-03-14T10:33:58;9.70;99.90
12746;DHT22;6437;53.686;10.030;2023-03-14T10:36:03;9.70;99.90
12746;DHT22;6437;53.686;10.030;2023-03-14T10:38:08;9.60;99.90
12746;DHT22;6437;53.686;10.030;2023-03-14T10:40:13;9.50;99.90
12746;DHT22;6437;53.686;10.030;2023-03-14T10:42:19;9.50;99.90
12746;DHT22;6437;53.686;10.030;2023-03-14T10:44:24;9.40;99.90
12746;DHT22;6437;53.686;10.030;2023-03-14T10:46:30;9.30;99.90
12746;DHT22;6437;53.686;10.030;2023-03-14T10:48:34;9.20;99.90
12746;DHT22;6437;53.686;10.030;2023-03-14T10:50:37;9.20;99.90
12746;DHT22;6437;53.686;10.030;2023-03-14T10:52:47;9.10;99.90
12746;DHT22;6437;53.686;10.030;2023-03-14T10:54:54;9.10;99.90
12746;DHT22;6437;53.686;10.030;2023-03-14T10:56:57;9.00;99.90
12746;DHT22;6437;53.686;10.030;2023-03-14T10:58:59;8.90;99.90
12746;DHT22;6437;53.686;10.030;2023-03-14T11:01:09;8.90;99.90
12746;DHT22;6437;53.686;10.030;2023-03-14T11:03:15;8.80;99.90
12746;DHT22;6437;53.686;10.030;2023-03-14T11:05:25;8.80;99.90
12746;DHT22;6437;53.686;10.030;2023-03-14T11:07:31;8.70;99.90
12746;DHT22;6437;53.686;10.030;2023-03-14T11:09:39;8.60;99.90
12746;DHT22;6437;53.686;10.030;2023-03-14T11:11:47;8.60;99.90
12746;DHT22;6437;53.686;10.030;2023-03-14T11:14:01;8.60;99.90
12746;DHT22;6437;53.686;10.030;2023-03-14T11:16:11;8.50;99.90
12746;DHT22;6437;53.686;10.030;2023-03-14T11:20:53;8.40;99.90
12746;DHT22;6437;53.686;10.030;2023-03-14T11:23:02;8.30;99.90
12746;DHT22;6437;53.686;10.030;2023-03-14T11:25:22;8.30;99.90
12746;DHT22;6437;53.686;10.030;2023-03-14T11:27:33;8.30;99.90
12746;DHT22;6437;53.686;10.030;2023-03-14T11:29:39;8.20;99.90
12746;DHT22;6437;53.686;10.030;2023-03-14T11:31:44;8.20;99.90
12746;DHT22;6437;53.686;10.030;2023-03-14T11:33:50;8.10;99.90
12746;DHT22;6437;53.686;10.030;2023-03-14T11:35:58;8.20;99.90
12746;DHT22;6437;53.686;10.030;2023-03-14T11:38:10;8.10;99.90
12746;DHT22;6437;53.686;10.030;2023-03-14T11:40:17;8.10;99.90
12746;DHT22;6437;53.686;10.030;2023-03-14T11:42:20;8.20;99.90
12746;DHT22;6437;53.686;10.030;2023-03-14T11:44:27;8.10;99.90
12746;DHT22;6437;53.686;10.030;2023-03-14T11:46:34;8.10;99.90
12746;DHT22;6437;53.686;10.030;2023-03-14T11:48:43;8.10;99.90
12746;DHT22;6437;53.686;10.030;2023-03-14T11:50:47;8.10;99.90
12746;DHT22;6437;53.686;10.030;2023-03-14T11:52:53;8.10;99.90
12746;DHT22;6437;53.686;10.030;2023-03-14T11:54:58;8.10;99.90
12746;DHT22;6437;53.686;10.030;2023-03-14T11:57:04;8.50;99.90
12746;DHT22;6437;53.686;10.030;2023-03-14T11:59:14;8.10;99.90
12746;DHT22;6437;53.686;10.030;2023-03-14T12:01:18;8.10;99.90
12746;DHT22;6437;53.686;10.030;2023-03-14T12:03:28;8.10;99.90
12746;DHT22;6437;53.686;10.030;2023-03-14T12:05:40;8.10;99.90
12746;DHT22;6437;53.686;10.030;2023-03-14T12:08:00;8.10;99.90
12746;DHT22;6437;53.686;10.030;2023-03-14T12:10:05;8.10;99.90
12746;DHT22;6437;53.686;10.030;2023-03-14T12:12:11;8.10;99.90
12746;DHT22;6437;53.686;10.030;2023-03-14T12:14:22;8.10;99.90
12746;DHT22;6437;53.686;10.030;2023-03-14T12:16:36;8.00;99.90
12746;DHT22;6437;53.686;10.030;2023-03-14T12:18:39;8.10;99.90
12746;DHT22;6437;53.686;10.030;2023-03-14T12:20:51;8.10;99.90
12746;DHT22;6437;53.686;10.030;2023-03-14T12:22:54;8.10;99.90
12746;DHT22;6437;53.686;10.030;2023-03-14T12:25:00;8.00;99.90
12746;DHT22;6437;53.686;10.030;2023-03-14T12:27:06;8.00;99.90
12746;DHT22;6437;53.686;10.030;2023-03-14T12:29:16;8.00;99.90
12746;DHT22;6437;53.686;10.030;2023-03-14T12:31:36;8.00;99.90
12746;DHT22;6437;53.686;10.030;2023-03-14T12:33:38;8.00;99.90
12746;DHT22;6437;53.686;10.030;2023-03-14T12:35:43;8.00;99.90
12746;DHT22;6437;53.686;10.030;2023-03-14T12:37:46;8.00;99.90
12746;DHT22;6437;53.686;10.030;2023-03-14T12:40:13;8.00;99.90
12746;DHT22;6437;53.686;10.030;2023-03-14T12:42:22;8.00;99.90
12746;DHT22;6437;53.686;10.030;2023-03-14T12:44:43;8.10;99.90
12746;DHT22;6437;53.686;10.030;2023-03-14T12:46:46;8.10;99.90
12746;DHT22;6437;53.686;10.030;2023-03-14T12:48:49;8.00;99.90
12746;DHT22;6437;53.686;10.030;2023-03-14T12:50:54;8.10;99.90
12746;DHT22;6437;53.686;10.030;2023-03-14T12:55:50;8.10;99.90
12746;DHT22;6437;53.686;10.030;2023-03-14T12:57:58;8.00;99.90
12746;DHT22;6437;53.686;10.030;2023-03-14T13:00:17;8.00;99.90
12746;DHT22;6437;53.686;10.030;2023-03-14T13:02:24;8.00;99.90
12746;DHT22;6437;53.686;10.030;2023-03-14T13:04:33;8.00;99.90
12746;DHT22;6437;53.686;10.030;2023-03-14T13:06:49;8.10;99.90
12746;DHT22;6437;53.686;10.030;2023-03-14T13:08:54;8.10;99.90
12746;DHT22;6437;53.686;10.030;2023-03-14T13:10:57;8.10;99.90
12746;DHT22;6437;53.686;10.030;2023-03-14T13:13:03;8.10;99.90
12746;DHT22;6437;53.686;10.030;2023-03-14T13:15:23;8.10;99.90